Olympia Regional Airport
KOLM : now visible

Airfield :











YOU CAN JOIN US ON...

 
LOGIN :

Register | Disclaimer

   EN    FR    IT 

 









Legend :    VFR   Marginal VFR   IFR   Intensive IFR   Very Intensive IFR
Visi :
Ceiling :
>= 8 km
>= 3000ft
5 to 8 km
1000 to 3000 ft
1500m to 5 km
500 to 1000 ft
800 to 1500m
200 to 500 ft
< 800m
< 200 ft
Symbols :   Thunderstorms  Fog  Heavy snow  Heavy precipitations  Wind > 20 kt







- Airport Elevation : 209 ft
- IATA code : OLM


KOLM - Olympia Regional

CURRENT METAR :
  • 181054Z AUTO 00000KT 10SM FEW013 FEW038 BKN049 11/11 A2978 RMK AO2 SLP083 T01110111

EXPIRED METARs :
  • 181037Z AUTO 00000KT 9SM SCT010 BKN039 BKN050 12/12 A2978 RMK AO2 T01170117
  • 180954Z AUTO 17003KT 10SM OVC010 12/11 A2977 RMK AO2 SLP081 T01170111
  • 180941Z AUTO 00000KT 9SM BKN012 OVC041 12/11 A2977 RMK AO2 T01170111
  • 180931Z AUTO 00000KT 3SM BR SCT012 OVC039 11/11 A2977 RMK AO2 T01110111
  • 180854Z AUTO 00000KT 1/2SM FG FEW019 BKN035 BKN045 11/11 A2976 RMK AO2 RAE03 SLP079 P0000 60001 T01110111 53006
  • 180844Z AUTO 15003KT 2 1/2SM BR FEW010 SCT016 BKN044 12/11 A2976 RMK AO2 VIS 1V5 RAE03 P0000 T01170111
  • 180836Z AUTO 00000KT 10SM SCT010 BKN019 BKN044 12/11 A2976 RMK AO2 RAE03 P0000 T01220111

TAF KOLM
Valid from the 18 at 09:00 until the 19 at 06:00 UTC


180901Z 1809/1906 00000KT 3SM BR SCT017 BKN040 BKN090
TEMPO 1809/1813 1/2SM FG VV001
FM181300 00000KT 2SM BR BKN010 BKN030
TEMPO 1813/1816 1/4SM FG VV001
FM181800 03004KT P6SM BKN025 BKN050
FM182100 01005KT P6SM BKN050
FM190100 VRB03KT P6SM SCT050
No reported NOTAMs for that airfield.



MET'MAP, your aeronautical weather chart ! - Copyright ORBIFLY December 2007 - Disclaimer

ORBIFLY MET'MAP TEAM :

Programming & Development : Alexandra Zaïnal
Concept & Development : Baudouin d'Aumeries
Co-Development & Prog : Marc-Olivier Méhu
Technical & hardware support : Manuel Goepfert

Contact : metmap@orbifly.com




SOURCES & CREDITS :

   NOAA       Earth
Advisory